createdAt,value
2023-03-11T00:02:19.757Z,101143.38
2023-03-11T00:04:49.503Z,101146.72
2023-03-11T00:07:19.135Z,101144.88
2023-03-11T00:09:48.797Z,101139.41
2023-03-11T00:12:18.379Z,101145.59
2023-03-11T00:14:47.969Z,101141.66
2023-03-11T00:17:17.570Z,101135.59
2023-03-11T00:19:47.220Z,101134.91
2023-03-11T00:22:16.851Z,101133.22
2023-03-11T00:24:46.481Z,101134.91
2023-03-11T00:27:16.099Z,101138.56
2023-03-11T00:29:45.648Z,101140.94
2023-03-11T00:32:15.488Z,101141.09
2023-03-11T00:34:45.101Z,101143.50
2023-03-11T00:37:14.742Z,101139.97
2023-03-11T00:39:44.262Z,101136.44
2023-03-11T00:42:13.855Z,101135.03
2023-03-11T00:44:44.071Z,101132.34
2023-03-11T00:47:14.106Z,101128.22
2023-03-11T00:49:43.845Z,101135.69
2023-03-11T00:52:13.422Z,101121.47
2023-03-11T00:54:43.116Z,101123.59
2023-03-11T00:57:12.737Z,101126.53
2023-03-11T00:59:42.303Z,101129.22
2023-03-11T01:02:11.860Z,101121.88
2023-03-11T01:04:41.600Z,101128.78
2023-03-11T01:07:11.472Z,101121.56
2023-03-11T01:09:41.159Z,101116.38
2023-03-11T01:12:10.917Z,101111.69
2023-03-11T01:14:40.515Z,101113.53
2023-03-11T01:17:10.125Z,101121.28
2023-03-11T01:19:39.696Z,101105.22
2023-03-11T01:22:09.288Z,101109.44
2023-03-11T01:24:38.870Z,101095.91
2023-03-11T01:27:08.567Z,101095.91
2023-03-11T01:29:38.193Z,101090.53
2023-03-11T01:32:08.476Z,101084.19
2023-03-11T01:34:38.201Z,101082.22
2023-03-11T01:37:07.873Z,101085.91
2023-03-11T01:39:37.516Z,101093.78
2023-03-11T01:42:07.451Z,101090.00
2023-03-11T01:44:37.041Z,101085.75
2023-03-11T01:47:06.591Z,101086.88
2023-03-11T01:49:36.197Z,101084.91
2023-03-11T01:52:09.235Z,101079.28
2023-03-11T01:54:40.899Z,101083.81
2023-03-11T01:57:12.825Z,101083.66
2023-03-11T01:59:44.600Z,101072.94
2023-03-11T02:02:32.151Z,101074.75
2023-03-11T02:05:03.215Z,101072.75
2023-03-11T02:07:32.963Z,101070.97
2023-03-11T02:10:03.706Z,101071.94
2023-03-11T02:12:34.130Z,101066.72
2023-03-11T02:15:03.846Z,101078.00
2023-03-11T02:17:34.661Z,101073.63
2023-03-11T02:20:30.257Z,101066.56
2023-03-11T02:22:59.856Z,101076.00
2023-03-11T02:25:41.492Z,101067.28
2023-03-11T02:28:12.584Z,101065.59
2023-03-11T02:30:45.315Z,101058.53
2023-03-11T02:33:15.344Z,101057.56
2023-03-11T02:35:45.102Z,101063.59
2023-03-11T02:38:15.577Z,101067.13
2023-03-11T02:40:54.093Z,101065.28
2023-03-11T02:43:29.708Z,101067.00
2023-03-11T02:45:59.324Z,101058.94
2023-03-11T02:48:28.887Z,101063.31
2023-03-11T02:50:58.490Z,101073.03
2023-03-11T02:53:29.725Z,101064.16
2023-03-11T02:55:59.312Z,101059.63
2023-03-11T02:58:28.913Z,101058.94
2023-03-11T03:00:58.551Z,101060.63
2023-03-11T03:03:28.161Z,101057.13
2023-03-11T03:05:57.721Z,101051.59
2023-03-11T03:08:27.354Z,101049.63
2023-03-11T03:10:57.010Z,101051.47
2023-03-11T03:13:26.730Z,101035.38
2023-03-11T03:15:56.517Z,101043.44
2023-03-11T03:18:26.166Z,101045.09
2023-03-11T03:20:55.819Z,101042.56
2023-03-11T03:23:25.444Z,101032.53
2023-03-11T03:25:55.112Z,101033.69
2023-03-11T03:28:24.717Z,101036.34
2023-03-11T03:30:54.261Z,101027.47
2023-03-11T03:33:23.868Z,101025.50
2023-03-11T03:35:53.521Z,101021.00
2023-03-11T03:38:23.142Z,101021.00
2023-03-11T03:40:52.820Z,101009.28
2023-03-11T03:43:22.394Z,101010.94
2023-03-11T03:46:02.234Z,101010.94
2023-03-11T03:48:32.012Z,101004.75
2023-03-11T03:51:12.129Z,100992.38
2023-03-11T03:53:41.808Z,100987.84
2023-03-11T03:56:15.947Z,100988.00
2023-03-11T03:58:44.934Z,100992.66
2023-03-11T04:01:14.851Z,100982.78
2023-03-11T04:03:44.641Z,100979.97
2023-03-11T04:06:19.482Z,100981.81
2023-03-11T04:08:49.134Z,100966.41
2023-03-11T04:11:18.700Z,100968.25
2023-03-11T04:13:48.433Z,100964.56
2023-03-11T04:16:24.775Z,100963.59
2023-03-11T04:18:54.452Z,100961.06
2023-03-11T04:21:24.049Z,100972.47
2023-03-11T04:23:53.626Z,100953.84
2023-03-11T04:26:23.242Z,100967.13
2023-03-11T04:28:52.837Z,100967.94
2023-03-11T04:31:22.475Z,100958.06
2023-03-11T04:33:52.100Z,100948.91
2023-03-11T04:36:21.821Z,100939.31
2023-03-11T04:38:51.406Z,100945.38
2023-03-11T04:41:21.109Z,100939.16
2023-03-11T04:43:50.770Z,100935.50
2023-03-11T04:46:20.375Z,100938.19
2023-03-11T04:48:50.080Z,100930.97
2023-03-11T04:51:19.722Z,100933.50
2023-03-11T04:53:49.325Z,100913.06
2023-03-11T04:56:18.841Z,100918.44
2023-03-11T04:58:48.392Z,100918.44
2023-03-11T05:01:18.125Z,100920.25
2023-03-11T05:03:48.653Z,100914.75
2023-03-11T05:06:18.239Z,100912.91
2023-03-11T05:08:48.050Z,100903.03
2023-03-11T05:11:17.669Z,100906.56
2023-03-11T05:13:47.314Z,100906.56
2023-03-11T05:16:16.961Z,100907.41
2023-03-11T05:18:46.678Z,100898.53
2023-03-11T05:21:16.468Z,100896.38
2023-03-11T05:23:46.949Z,100890.16
2023-03-11T05:26:16.526Z,100888.66
2023-03-11T05:28:46.115Z,100887.81
2023-03-11T05:31:15.788Z,100886.28
2023-03-11T05:33:45.447Z,100893.84
2023-03-11T05:36:15.056Z,100887.94
2023-03-11T05:38:44.672Z,100886.94
2023-03-11T05:41:14.224Z,100881.75
2023-03-11T05:43:43.824Z,100874.56
2023-03-11T05:46:14.497Z,100884.44
2023-03-11T05:48:44.188Z,100889.50
2023-03-11T05:51:13.926Z,100890.50
2023-03-11T05:53:50.329Z,100888.94
2023-03-11T05:56:21.834Z,100895.16
2023-03-11T05:58:51.481Z,100893.47
2023-03-11T06:01:22.402Z,100894.69
2023-03-11T06:03:52.078Z,100898.38
2023-03-11T06:06:22.177Z,100892.31
2023-03-11T06:08:51.834Z,100890.78
2023-03-11T06:11:21.548Z,100899.66
2023-03-11T06:13:51.156Z,100897.66
2023-03-11T06:16:20.883Z,100900.34
2023-03-11T06:18:50.791Z,100904.88
2023-03-11T06:21:22.116Z,100903.88
2023-03-11T06:23:52.141Z,100909.91
2023-03-11T06:26:22.459Z,100901.88
2023-03-11T06:28:52.324Z,100902.03
2023-03-11T06:31:24.187Z,100900.34
2023-03-11T06:33:53.936Z,100904.88
2023-03-11T06:36:23.543Z,100902.03
2023-03-11T06:38:56.157Z,100906.41
2023-03-11T06:41:25.715Z,100908.25
2023-03-11T06:43:55.414Z,100903.88
2023-03-11T06:46:25.494Z,100912.59
2023-03-11T06:48:55.093Z,100897.66
2023-03-11T06:51:24.774Z,100899.38
2023-03-11T06:53:55.398Z,100910.22
2023-03-11T06:56:25.234Z,100904.19
2023-03-11T06:58:55.220Z,100904.88
2023-03-11T07:01:26.214Z,100906.69
2023-03-11T07:03:55.902Z,100902.34
2023-03-11T07:06:27.560Z,100898.97
2023-03-11T07:08:57.215Z,100902.34
2023-03-11T07:11:27.940Z,100905.03
2023-03-11T07:13:57.597Z,100900.66
2023-03-11T07:16:28.658Z,100900.66
2023-03-11T07:19:00.624Z,100899.84
2023-03-11T07:21:31.213Z,100897.00
2023-03-11T07:24:02.291Z,100904.19
2023-03-11T07:26:32.369Z,100901.50
2023-03-11T07:29:01.987Z,100904.19
2023-03-11T07:31:33.641Z,100908.72
2023-03-11T07:34:04.890Z,100905.03
2023-03-11T07:36:34.661Z,100899.97
2023-03-11T07:39:06.164Z,100902.34
2023-03-11T07:41:36.985Z,100901.50
2023-03-11T07:44:08.123Z,100906.16
2023-03-11T07:46:39.437Z,100905.19
2023-03-11T07:49:09.140Z,100899.84
2023-03-11T07:51:39.761Z,100891.81
2023-03-11T07:54:09.398Z,100899.66
2023-03-11T07:56:38.960Z,100904.31
2023-03-11T07:59:08.555Z,100900.97
2023-03-11T08:01:38.162Z,100900.81
2023-03-11T08:04:08.698Z,100904.19
2023-03-11T08:06:38.969Z,100898.84
2023-03-11T08:09:10.553Z,100896.28
2023-03-11T08:11:40.355Z,100894.59
2023-03-11T08:14:10.495Z,100892.94
2023-03-11T08:16:41.393Z,100896.44
2023-03-11T08:19:13.780Z,100900.13
2023-03-11T08:21:43.450Z,100904.66
2023-03-11T08:24:14.447Z,100898.44
2023-03-11T08:26:44.156Z,100911.53
2023-03-11T08:29:13.782Z,100911.22
2023-03-11T08:31:43.420Z,100906.16
2023-03-11T08:34:13.163Z,100903.34
2023-03-11T08:36:42.884Z,100904.31
2023-03-11T08:39:12.473Z,100913.53
2023-03-11T08:41:42.130Z,100914.50
2023-03-11T08:44:11.793Z,100919.84
2023-03-11T08:46:41.748Z,100922.41
2023-03-11T08:49:11.537Z,100919.72
2023-03-11T08:51:41.169Z,100920.56
2023-03-11T08:54:10.782Z,100925.91
2023-03-11T08:56:40.443Z,100940.31
2023-03-11T08:59:10.217Z,100944.84
2023-03-11T09:01:39.874Z,100947.53
2023-03-11T09:04:09.578Z,100940.47
2023-03-11T09:06:39.221Z,100945.81
2023-03-11T09:09:08.795Z,100957.53
2023-03-11T09:11:38.990Z,100958.53
2023-03-11T09:14:08.556Z,100956.69
2023-03-11T09:16:38.197Z,100949.66
2023-03-11T09:19:09.030Z,100951.34
2023-03-11T09:21:39.223Z,100946.97
2023-03-11T09:24:09.388Z,100937.09
2023-03-11T09:26:38.954Z,100943.28
2023-03-11T09:29:08.555Z,100960.22
2023-03-11T09:31:40.112Z,100966.56
2023-03-11T09:34:09.723Z,100967.41
2023-03-11T09:36:39.389Z,100962.88
2023-03-11T09:39:09.041Z,100971.22
2023-03-11T09:41:58.918Z,100974.91
2023-03-11T09:45:06.586Z,100963.47
2023-03-11T09:47:40.784Z,100976.19
2023-03-11T09:50:18.105Z,100973.22
2023-03-11T09:53:11.946Z,100977.34
2023-03-11T09:56:08.237Z,100981.84
2023-03-11T09:58:46.886Z,100989.47
2023-03-11T10:01:20.812Z,100984.53
2023-03-11T10:03:50.609Z,100992.56
2023-03-11T10:06:20.900Z,100987.03
2023-03-11T10:09:19.711Z,100992.41
2023-03-11T10:12:27.513Z,100999.66
2023-03-11T10:15:30.027Z,101002.03
2023-03-11T10:18:00.335Z,101006.25
2023-03-11T10:20:33.431Z,101006.25
2023-03-11T10:23:24.388Z,101003.72
2023-03-11T10:26:05.893Z,101002.16
2023-03-11T10:28:40.664Z,101012.59
2023-03-11T10:31:38.712Z,101012.88
2023-03-11T10:34:28.790Z,101016.56
2023-03-11T10:36:58.321Z,101020.91
2023-03-11T10:39:28.043Z,101016.38
2023-03-11T10:42:05.101Z,101024.72
2023-03-11T10:44:38.453Z,101026.44
2023-03-11T10:47:09.258Z,101029.53
2023-03-11T10:49:38.823Z,101022.19
2023-03-11T10:52:08.700Z,101028.25
2023-03-11T10:54:41.222Z,101015.28
2023-03-11T10:57:40.313Z,101025.72
2023-03-11T11:00:18.760Z,101022.66
2023-03-11T11:03:05.942Z,101026.34
2023-03-11T11:05:36.804Z,101023.13
2023-03-11T11:08:19.272Z,101020.75
2023-03-11T11:11:12.272Z,101024.69
2023-03-11T11:13:41.880Z,101015.84
2023-03-11T11:16:23.746Z,101024.00
2023-03-11T11:19:01.965Z,101023.16
2023-03-11T11:21:45.752Z,101023.31
2023-03-11T11:24:25.976Z,101036.69
2023-03-11T11:27:13.700Z,101048.41
2023-03-11T11:29:43.621Z,101036.13
2023-03-11T11:32:42.705Z,101034.31
2023-03-11T11:35:21.345Z,101036.13
2023-03-11T11:37:56.189Z,101039.66
2023-03-11T11:40:31.435Z,101035.97
2023-03-11T11:43:07.538Z,101039.81
2023-03-11T11:45:59.438Z,101039.81
2023-03-11T11:48:35.686Z,101046.69
2023-03-11T11:51:10.435Z,101039.66
2023-03-11T11:53:44.016Z,101047.69
2023-03-11T11:56:13.638Z,101049.38
2023-03-11T11:58:43.245Z,101050.38
2023-03-11T12:01:21.613Z,101045.00
2023-03-11T12:04:00.001Z,101049.53
2023-03-11T12:06:37.695Z,101042.50
2023-03-11T12:09:28.676Z,101044.47
2023-03-11T12:12:07.361Z,101041.66
2023-03-11T12:15:00.851Z,101038.25
2023-03-11T12:17:30.408Z,101047.13
2023-03-11T12:20:10.191Z,101048.97
2023-03-11T12:22:54.576Z,101052.34
2023-03-11T12:25:51.400Z,101053.31
2023-03-11T12:28:36.704Z,101052.50
2023-03-11T12:31:10.572Z,101056.84
2023-03-11T12:33:44.337Z,101055.16
2023-03-11T12:36:43.585Z,101055.03
2023-03-11T12:39:22.330Z,101046.13
2023-03-11T12:41:52.062Z,101047.13
2023-03-11T12:44:31.232Z,101053.31
2023-03-11T12:47:00.751Z,101057.72
2023-03-11T12:49:53.392Z,101062.19
2023-03-11T12:52:28.065Z,101053.47
2023-03-11T12:55:03.644Z,101041.78
2023-03-11T12:57:39.409Z,101053.47
2023-03-11T13:00:27.343Z,101048.97
2023-03-11T13:03:31.105Z,101058.84
2023-03-11T13:06:22.146Z,101052.78
2023-03-11T13:08:57.950Z,101057.16
2023-03-11T13:11:36.677Z,101060.97
2023-03-11T13:14:21.522Z,101058.13
2023-03-11T13:16:51.168Z,101056.44
2023-03-11T13:19:29.821Z,101057.28
2023-03-11T13:22:01.119Z,101058.13
2023-03-11T13:24:33.599Z,101067.00
2023-03-11T13:27:07.536Z,101064.47
2023-03-11T13:29:59.238Z,101069.66
2023-03-11T13:32:51.265Z,101069.66
2023-03-11T13:35:36.203Z,101056.44
2023-03-11T13:38:14.808Z,101043.22
2023-03-11T13:40:45.588Z,101045.06
2023-03-11T13:43:28.125Z,101040.38
2023-03-11T13:46:06.042Z,101035.03
2023-03-11T13:48:49.972Z,101040.38
2023-03-11T13:51:34.710Z,101040.53
2023-03-11T13:54:13.050Z,101033.47
2023-03-11T13:56:48.279Z,101029.84
2023-03-11T13:59:25.562Z,101022.78
2023-03-11T14:02:10.392Z,101021.81
2023-03-11T14:04:39.988Z,101019.25
2023-03-11T14:07:17.140Z,101027.16
2023-03-11T14:09:46.780Z,101019.13
2023-03-11T14:12:18.658Z,101025.31
2023-03-11T14:14:53.101Z,101018.28
2023-03-11T14:17:22.706Z,101012.94
2023-03-11T14:20:26.665Z,101025.44
2023-03-11T14:22:57.023Z,101012.22
2023-03-11T14:25:32.568Z,101010.25
2023-03-11T14:28:04.474Z,101003.06
2023-03-11T14:30:35.673Z,101006.72
2023-03-11T14:33:20.529Z,101007.59
2023-03-11T14:35:58.355Z,101004.19
2023-03-11T14:38:32.775Z,100998.00
2023-03-11T14:41:06.637Z,100998.13
2023-03-11T14:43:37.415Z,100998.00
2023-03-11T14:46:07.344Z,101001.53
2023-03-11T14:48:41.656Z,101011.38
2023-03-11T14:51:16.629Z,101015.91
2023-03-11T14:53:48.730Z,101027.56
2023-03-11T14:56:23.232Z,101026.72
2023-03-11T14:59:17.018Z,101026.59
2023-03-11T15:01:46.702Z,101011.38
2023-03-11T15:04:36.702Z,101005.19
2023-03-11T15:07:06.542Z,101014.91
2023-03-11T15:09:36.139Z,101000.81
2023-03-11T15:12:06.757Z,100988.44
2023-03-11T15:14:39.780Z,100983.91
2023-03-11T15:17:36.104Z,100980.28
2023-03-11T15:20:43.194Z,100982.06
2023-03-11T15:23:21.891Z,100980.41
2023-03-11T15:25:51.706Z,100972.38
2023-03-11T15:28:26.670Z,100975.03
2023-03-11T15:31:22.049Z,100986.75
2023-03-11T15:33:53.240Z,100988.31
2023-03-11T15:36:41.542Z,100986.59
2023-03-11T15:39:15.276Z,100981.41
2023-03-11T15:41:45.980Z,100986.75
2023-03-11T15:44:26.109Z,100983.91
2023-03-11T15:46:55.806Z,100988.44
2023-03-11T15:49:25.387Z,100990.25
2023-03-11T15:51:55.058Z,100990.44
2023-03-11T15:54:24.685Z,100977.03
2023-03-11T15:56:54.275Z,100977.16
2023-03-11T15:59:23.986Z,100977.88
2023-03-11T16:01:53.546Z,100982.53
2023-03-11T16:04:23.505Z,100993.09
2023-03-11T16:07:07.111Z,100988.72
2023-03-11T16:09:37.293Z,100978.84
2023-03-11T16:12:26.921Z,100981.69
2023-03-11T16:14:56.583Z,100966.47
2023-03-11T16:17:26.621Z,100975.50
2023-03-11T16:19:58.209Z,100965.78
2023-03-11T16:22:33.593Z,100958.72
2023-03-11T16:25:03.769Z,100948.03
2023-03-11T16:27:33.335Z,100947.06
2023-03-11T16:30:03.186Z,100952.53
2023-03-11T16:32:32.898Z,100956.22
2023-03-11T16:35:02.554Z,100947.34
2023-03-11T16:37:32.153Z,100959.72
2023-03-11T16:40:01.865Z,100947.47
2023-03-11T16:42:31.484Z,100945.66
2023-03-11T16:45:03.483Z,100957.22
2023-03-11T16:47:33.487Z,100951.03
2023-03-11T16:50:03.129Z,100951.03
2023-03-11T16:52:33.129Z,100943.97
2023-03-11T16:55:02.790Z,100941.16
2023-03-11T16:57:32.424Z,100932.13
2023-03-11T17:00:02.020Z,100933.97
2023-03-11T17:02:31.646Z,100922.56
2023-03-11T17:05:01.946Z,100911.84
2023-03-11T17:07:31.495Z,100908.22
2023-03-11T17:10:01.508Z,100911.84
2023-03-11T17:12:31.268Z,100908.50
2023-03-11T17:15:00.901Z,100900.31
2023-03-11T17:17:30.565Z,100899.47
2023-03-11T17:20:00.244Z,100897.78
2023-03-11T17:22:29.876Z,100896.09
2023-03-11T17:24:59.463Z,100891.72
2023-03-11T17:27:33.656Z,100892.44
2023-03-11T17:30:03.170Z,100889.59
2023-03-11T17:32:33.139Z,100859.91
2023-03-11T17:35:02.969Z,100851.06
2023-03-11T17:37:32.670Z,100857.13
2023-03-11T17:40:02.332Z,100856.28
2023-03-11T17:45:01.306Z,100864.31
2023-03-11T17:47:31.009Z,100858.94
2023-03-11T17:50:00.707Z,100857.25
2023-03-11T17:52:30.341Z,100853.59
2023-03-11T17:55:00.049Z,100855.44
2023-03-11T17:57:32.201Z,100845.72
2023-03-11T18:00:07.413Z,100847.25
2023-03-11T18:02:36.981Z,100857.25
2023-03-11T18:05:06.921Z,100853.72
2023-03-11T18:10:10.774Z,100850.34
2023-03-11T18:12:40.689Z,100837.69
2023-03-11T18:15:16.006Z,100844.75
2023-03-11T18:17:45.632Z,100837.69
2023-03-11T18:20:15.460Z,100842.06
2023-03-11T18:22:48.275Z,100852.03
2023-03-11T18:25:17.891Z,100842.06
2023-03-11T18:27:47.480Z,100854.56
2023-03-11T18:30:17.322Z,100847.41
2023-03-11T18:32:47.060Z,100841.31
2023-03-11T18:35:19.049Z,100843.03
2023-03-11T18:37:48.617Z,100842.06
2023-03-11T18:40:18.290Z,100825.44
2023-03-11T18:42:47.888Z,100828.94
2023-03-11T18:47:46.382Z,100819.78
2023-03-11T18:50:15.955Z,100818.94
2023-03-11T18:52:45.571Z,100821.75
2023-03-11T18:55:15.246Z,100807.53
2023-03-11T19:00:14.994Z,100798.53
2023-03-11T19:02:45.070Z,100792.19
2023-03-11T19:05:14.693Z,100781.63
2023-03-11T19:07:44.328Z,100774.59
2023-03-11T19:10:14.235Z,100781.63
2023-03-11T19:12:44.779Z,100770.09
2023-03-11T19:15:14.933Z,100760.38
2023-03-11T19:17:46.627Z,100752.34
2023-03-11T19:20:21.365Z,100747.69
2023-03-11T19:22:51.050Z,100747.00
2023-03-11T19:25:22.698Z,100738.84
2023-03-11T19:27:52.260Z,100734.63
2023-03-11T19:30:22.693Z,100736.28
2023-03-11T19:32:55.485Z,100741.63
2023-03-11T19:35:25.685Z,100731.09
2023-03-11T19:37:57.961Z,100741.81
2023-03-11T19:40:31.314Z,100738.13
2023-03-11T19:43:01.285Z,100729.44
2023-03-11T19:45:34.252Z,100732.09
2023-03-11T19:48:03.946Z,100729.44
2023-03-11T19:50:33.484Z,100735.75
2023-03-11T19:53:03.159Z,100741.09
2023-03-11T19:55:32.872Z,100734.91
2023-03-11T19:58:02.484Z,100733.94
2023-03-11T20:00:32.142Z,100729.44
2023-03-11T20:03:03.807Z,100737.28
2023-03-11T20:05:33.461Z,100747.16
2023-03-11T20:08:03.050Z,100751.66
2023-03-11T20:10:32.997Z,100747.16
2023-03-11T20:13:03.980Z,100747.00
2023-03-11T20:15:33.681Z,100751.50
2023-03-11T20:18:04.992Z,100744.19
2023-03-11T20:20:34.886Z,100744.31
2023-03-11T20:25:33.895Z,100741.38
2023-03-11T20:28:03.619Z,100730.69
2023-03-11T20:30:33.218Z,100722.78
2023-03-11T20:33:02.955Z,100725.47
2023-03-11T20:35:32.787Z,100725.31
2023-03-11T20:38:02.634Z,100720.81
2023-03-11T20:45:30.376Z,100720.94
2023-03-11T20:48:00.031Z,100719.00
2023-03-11T20:50:29.604Z,100722.66
2023-03-11T20:52:59.413Z,100711.81
2023-03-11T20:55:28.987Z,100702.09
2023-03-11T20:57:58.727Z,100695.19
2023-03-11T21:00:28.384Z,100685.31
2023-03-11T21:05:26.932Z,100679.97
2023-03-11T21:07:56.556Z,100674.63
2023-03-11T21:10:26.207Z,100666.75
2023-03-11T21:12:56.037Z,100682.66
2023-03-11T21:15:25.668Z,100682.78
2023-03-11T21:17:55.237Z,100676.47
2023-03-11T21:20:25.177Z,100683.66
2023-03-11T21:22:54.813Z,100662.25
2023-03-11T21:25:24.549Z,100675.63
2023-03-11T21:27:54.376Z,100679.16
2023-03-11T21:30:24.046Z,100682.78
2023-03-11T21:32:53.761Z,100700.53
2023-03-11T21:35:23.503Z,100695.19
2023-03-11T21:37:53.443Z,100697.03
2023-03-11T21:40:23.180Z,100686.34
2023-03-11T21:42:53.032Z,100688.13
2023-03-11T21:45:22.685Z,100692.53
2023-03-11T21:47:52.341Z,100706.88
2023-03-11T21:50:22.042Z,100697.03
2023-03-11T21:52:51.652Z,100709.53
2023-03-11T21:55:21.380Z,100710.41
2023-03-11T21:57:51.090Z,100693.50
2023-03-11T22:00:21.031Z,100707.72
2023-03-11T22:02:50.690Z,100689.13
2023-03-11T22:05:20.474Z,100683.13
2023-03-11T22:07:50.171Z,100697.31
2023-03-11T22:10:20.192Z,100705.34
2023-03-11T22:12:50.013Z,100699.16
2023-03-11T22:15:19.850Z,100698.28
2023-03-11T22:17:49.584Z,100689.44
2023-03-11T22:20:19.657Z,100684.09
2023-03-11T22:22:49.295Z,100674.56
2023-03-11T22:25:19.036Z,100675.38
2023-03-11T22:27:48.620Z,100663.84
2023-03-11T22:30:18.328Z,100662.16
2023-03-11T22:32:48.025Z,100659.63
2023-03-11T22:35:18.124Z,100648.94
2023-03-11T22:37:47.744Z,100643.59
2023-03-11T22:40:17.328Z,100649.09
2023-03-11T22:42:46.854Z,100635.88
2023-03-11T22:45:16.453Z,100627.19
2023-03-11T22:47:46.024Z,100644.91
2023-03-11T22:50:15.585Z,100630.38
2023-03-11T22:52:45.149Z,100653.75
2023-03-11T22:55:14.789Z,100658.09
2023-03-11T22:57:44.442Z,100649.09
2023-03-11T23:00:18.624Z,100634.19
2023-03-11T23:02:48.047Z,100628.84
2023-03-11T23:05:17.796Z,100629.97
2023-03-11T23:07:47.420Z,100636.16
2023-03-11T23:10:19.091Z,100619.28
2023-03-11T23:12:50.545Z,100630.69
2023-03-11T23:15:20.708Z,100634.19
2023-03-11T23:17:50.405Z,100650.38
2023-03-11T23:20:20.206Z,100685.00
2023-03-11T23:22:49.780Z,100686.00
2023-03-11T23:25:19.662Z,100662.78
2023-03-11T23:27:49.312Z,100700.06
2023-03-11T23:30:18.987Z,100687.69
2023-03-11T23:32:48.641Z,100661.06
2023-03-11T23:35:18.196Z,100663.75
2023-03-11T23:37:51.806Z,100664.91
2023-03-11T23:40:21.428Z,100663.06
2023-03-11T23:42:52.204Z,100648.88
2023-03-11T23:45:21.854Z,100640.69
2023-03-11T23:47:51.480Z,100655.88
2023-03-11T23:50:21.135Z,100664.91
2023-03-11T23:52:50.723Z,100681.25
2023-03-11T23:55:20.306Z,100669.56
2023-03-11T23:57:49.922Z,100667.72
